sensor_id;sensor_type;location;lat;lon;timestamp;temperature;humidity
17998;DHT22;9124;48.144;17.098;2023-04-06T00:00:39;2.40;46.20
17998;DHT22;9124;48.144;17.098;2023-04-06T00:04:16;2.40;46.30
17998;DHT22;9124;48.144;17.098;2023-04-06T00:07:53;2.40;46.30
17998;DHT22;9124;48.144;17.098;2023-04-06T00:11:31;2.30;46.30
17998;DHT22;9124;48.144;17.098;2023-04-06T00:15:09;2.30;46.40
17998;DHT22;9124;48.144;17.098;2023-04-06T00:18:45;2.30;46.40
17998;DHT22;9124;48.144;17.098;2023-04-06T00:22:22;2.20;46.50
17998;DHT22;9124;48.144;17.098;2023-04-06T00:25:58;2.20;46.70
17998;DHT22;9124;48.144;17.098;2023-04-06T00:29:35;2.20;46.70
17998;DHT22;9124;48.144;17.098;2023-04-06T00:33:11;2.20;46.90
17998;DHT22;9124;48.144;17.098;2023-04-06T00:36:48;2.20;47.10
17998;DHT22;9124;48.144;17.098;2023-04-06T00:40:24;2.20;47.20
17998;DHT22;9124;48.144;17.098;2023-04-06T00:44:01;2.20;47.20
17998;DHT22;9124;48.144;17.098;2023-04-06T00:47:38;2.20;47.20
17998;DHT22;9124;48.144;17.098;2023-04-06T00:51:14;2.20;47.40
17998;DHT22;9124;48.144;17.098;2023-04-06T00:54:51;2.20;47.40
17998;DHT22;9124;48.144;17.098;2023-04-06T00:58:30;2.20;47.40
17998;DHT22;9124;48.144;17.098;2023-04-06T01:02:15;2.20;47.60
17998;DHT22;9124;48.144;17.098;2023-04-06T01:05:57;2.10;47.60
17998;DHT22;9124;48.144;17.098;2023-04-06T01:09:40;2.10;47.70
17998;DHT22;9124;48.144;17.098;2023-04-06T01:13:25;2.00;47.70
17998;DHT22;9124;48.144;17.098;2023-04-06T01:17:05;1.90;47.70
17998;DHT22;9124;48.144;17.098;2023-04-06T01:20:43;1.80;47.90
17998;DHT22;9124;48.144;17.098;2023-04-06T01:24:21;1.80;47.90
17998;DHT22;9124;48.144;17.098;2023-04-06T01:28:24;1.80;48.10
17998;DHT22;9124;48.144;17.098;2023-04-06T01:32:12;1.70;48.20
17998;DHT22;9124;48.144;17.098;2023-04-06T01:35:57;1.60;48.30
17998;DHT22;9124;48.144;17.098;2023-04-06T01:39:34;1.60;48.40
17998;DHT22;9124;48.144;17.098;2023-04-06T01:43:14;1.60;48.40
17998;DHT22;9124;48.144;17.098;2023-04-06T01:47:09;1.50;48.70
17998;DHT22;9124;48.144;17.098;2023-04-06T01:50:46;1.50;48.60
17998;DHT22;9124;48.144;17.098;2023-04-06T01:54:27;1.50;48.80
17998;DHT22;9124;48.144;17.098;2023-04-06T01:58:15;1.50;48.90
17998;DHT22;9124;48.144;17.098;2023-04-06T02:01:52;1.50;49.10
17998;DHT22;9124;48.144;17.098;2023-04-06T02:05:30;1.50;49.10
17998;DHT22;9124;48.144;17.098;2023-04-06T02:09:08;1.50;49.10
17998;DHT22;9124;48.144;17.098;2023-04-06T02:12:45;1.50;49.20
17998;DHT22;9124;48.144;17.098;2023-04-06T02:16:28;1.50;49.30
17998;DHT22;9124;48.144;17.098;2023-04-06T02:20:05;1.50;49.40
17998;DHT22;9124;48.144;17.098;2023-04-06T02:23:42;1.50;49.40
17998;DHT22;9124;48.144;17.098;2023-04-06T02:27:18;1.50;49.60
17998;DHT22;9124;48.144;17.098;2023-04-06T02:30:57;1.50;49.60
17998;DHT22;9124;48.144;17.098;2023-04-06T02:34:36;1.50;49.60
17998;DHT22;9124;48.144;17.098;2023-04-06T02:38:13;1.50;49.70
17998;DHT22;9124;48.144;17.098;2023-04-06T02:41:50;1.50;49.90
17998;DHT22;9124;48.144;17.098;2023-04-06T02:45:31;1.50;49.80
17998;DHT22;9124;48.144;17.098;2023-04-06T02:49:09;1.50;50.00
17998;DHT22;9124;48.144;17.098;2023-04-06T02:52:46;1.50;49.90
17998;DHT22;9124;48.144;17.098;2023-04-06T02:56:22;1.50;50.00
17998;DHT22;9124;48.144;17.098;2023-04-06T03:00:01;1.50;50.00
17998;DHT22;9124;48.144;17.098;2023-04-06T03:03:46;1.50;50.00
17998;DHT22;9124;48.144;17.098;2023-04-06T03:07:30;1.50;50.20
17998;DHT22;9124;48.144;17.098;2023-04-06T03:11:06;1.50;50.30
17998;DHT22;9124;48.144;17.098;2023-04-06T03:14:48;1.50;50.30
17998;DHT22;9124;48.144;17.098;2023-04-06T03:18:25;1.50;50.40
17998;DHT22;9124;48.144;17.098;2023-04-06T03:22:04;1.50;50.50
17998;DHT22;9124;48.144;17.098;2023-04-06T03:25:41;1.50;50.50
17998;DHT22;9124;48.144;17.098;2023-04-06T03:29:20;1.50;50.60
17998;DHT22;9124;48.144;17.098;2023-04-06T03:32:57;1.40;50.50
17998;DHT22;9124;48.144;17.098;2023-04-06T03:36:37;1.40;50.70
17998;DHT22;9124;48.144;17.098;2023-04-06T03:40:14;1.30;50.80
17998;DHT22;9124;48.144;17.098;2023-04-06T03:43:51;1.30;50.90
17998;DHT22;9124;48.144;17.098;2023-04-06T03:47:27;1.30;50.80
17998;DHT22;9124;48.144;17.098;2023-04-06T03:51:08;1.30;51.50
17998;DHT22;9124;48.144;17.098;2023-04-06T03:54:45;1.30;51.20
17998;DHT22;9124;48.144;17.098;2023-04-06T03:58:22;1.20;51.20
17998;DHT22;9124;48.144;17.098;2023-04-06T04:01:58;1.20;51.30
17998;DHT22;9124;48.144;17.098;2023-04-06T04:05:35;1.20;51.30
17998;DHT22;9124;48.144;17.098;2023-04-06T04:09:12;1.20;51.50
17998;DHT22;9124;48.144;17.098;2023-04-06T04:12:49;1.10;51.60
17998;DHT22;9124;48.144;17.098;2023-04-06T04:16:25;1.10;51.70
17998;DHT22;9124;48.144;17.098;2023-04-06T04:20:01;1.10;52.00
17998;DHT22;9124;48.144;17.098;2023-04-06T04:23:38;1.10;52.00
17998;DHT22;9124;48.144;17.098;2023-04-06T04:27:15;1.10;52.00
17998;DHT22;9124;48.144;17.098;2023-04-06T04:30:52;1.10;52.20
17998;DHT22;9124;48.144;17.098;2023-04-06T04:34:28;1.10;52.30
17998;DHT22;9124;48.144;17.098;2023-04-06T04:38:05;1.10;52.60
17998;DHT22;9124;48.144;17.098;2023-04-06T04:41:43;1.10;52.40
17998;DHT22;9124;48.144;17.098;2023-04-06T04:45:25;1.20;52.50
17998;DHT22;9124;48.144;17.098;2023-04-06T04:49:02;1.30;52.50
17998;DHT22;9124;48.144;17.098;2023-04-06T04:52:41;1.30;52.60
17998;DHT22;9124;48.144;17.098;2023-04-06T04:56:30;1.40;52.70
17998;DHT22;9124;48.144;17.098;2023-04-06T05:00:16;1.50;52.80
17998;DHT22;9124;48.144;17.098;2023-04-06T05:03:55;1.60;52.90
17998;DHT22;9124;48.144;17.098;2023-04-06T05:07:32;1.60;53.00
17998;DHT22;9124;48.144;17.098;2023-04-06T05:11:10;1.70;53.00
17998;DHT22;9124;48.144;17.098;2023-04-06T05:14:54;1.80;53.10
17998;DHT22;9124;48.144;17.098;2023-04-06T05:18:32;2.00;53.30
17998;DHT22;9124;48.144;17.098;2023-04-06T05:22:10;2.00;53.40
17998;DHT22;9124;48.144;17.098;2023-04-06T05:25:50;2.10;53.30
17998;DHT22;9124;48.144;17.098;2023-04-06T05:29:31;2.30;53.40
17998;DHT22;9124;48.144;17.098;2023-04-06T05:33:07;2.50;53.40
17998;DHT22;9124;48.144;17.098;2023-04-06T05:37:00;2.60;53.50
17998;DHT22;9124;48.144;17.098;2023-04-06T05:40:37;2.80;53.70
17998;DHT22;9124;48.144;17.098;2023-04-06T05:44:17;2.90;53.60
17998;DHT22;9124;48.144;17.098;2023-04-06T05:47:58;3.10;53.50
17998;DHT22;9124;48.144;17.098;2023-04-06T05:51:39;3.20;53.70
17998;DHT22;9124;48.144;17.098;2023-04-06T05:55:17;3.30;53.70
17998;DHT22;9124;48.144;17.098;2023-04-06T05:58:58;3.50;53.70
17998;DHT22;9124;48.144;17.098;2023-04-06T06:02:38;3.60;53.70
17998;DHT22;9124;48.144;17.098;2023-04-06T06:06:18;3.70;53.70
17998;DHT22;9124;48.144;17.098;2023-04-06T06:10:13;3.90;53.80
17998;DHT22;9124;48.144;17.098;2023-04-06T06:13:50;4.20;53.90
17998;DHT22;9124;48.144;17.098;2023-04-06T06:17:27;4.40;53.90
17998;DHT22;9124;48.144;17.098;2023-04-06T06:21:03;4.70;53.80
17998;DHT22;9124;48.144;17.098;2023-04-06T06:24:41;5.00;53.80
17998;DHT22;9124;48.144;17.098;2023-04-06T06:28:18;5.50;53.70
17998;DHT22;9124;48.144;17.098;2023-04-06T06:31:55;7.00;53.60
17998;DHT22;9124;48.144;17.098;2023-04-06T06:35:34;10.60;56.40
17998;DHT22;9124;48.144;17.098;2023-04-06T06:39:13;14.30;54.70
17998;DHT22;9124;48.144;17.098;2023-04-06T06:42:50;16.90;51.60
17998;DHT22;9124;48.144;17.098;2023-04-06T06:46:39;18.30;47.70
17998;DHT22;9124;48.144;17.098;2023-04-06T06:50:16;19.10;44.20
17998;DHT22;9124;48.144;17.098;2023-04-06T06:53:53;20.20;43.70
17998;DHT22;9124;48.144;17.098;2023-04-06T06:57:29;21.50;41.90
17998;DHT22;9124;48.144;17.098;2023-04-06T07:01:07;22.00;38.70
17998;DHT22;9124;48.144;17.098;2023-04-06T07:04:48;22.80;38.10
17998;DHT22;9124;48.144;17.098;2023-04-06T07:08:26;23.20;35.90
17998;DHT22;9124;48.144;17.098;2023-04-06T07:12:03;23.70;35.50
17998;DHT22;9124;48.144;17.098;2023-04-06T07:15:40;24.10;34.50
17998;DHT22;9124;48.144;17.098;2023-04-06T07:19:16;24.80;34.10
17998;DHT22;9124;48.144;17.098;2023-04-06T07:22:54;25.40;32.50
17998;DHT22;9124;48.144;17.098;2023-04-06T07:26:31;25.50;31.70
17998;DHT22;9124;48.144;17.098;2023-04-06T07:30:08;26.00;31.40
17998;DHT22;9124;48.144;17.098;2023-04-06T07:33:44;26.50;30.40
17998;DHT22;9124;48.144;17.098;2023-04-06T07:37:21;26.70;29.50
17998;DHT22;9124;48.144;17.098;2023-04-06T07:40:58;27.00;29.40
17998;DHT22;9124;48.144;17.098;2023-04-06T07:44:35;27.30;28.70
17998;DHT22;9124;48.144;17.098;2023-04-06T07:48:11;27.30;28.20
17998;DHT22;9124;48.144;17.098;2023-04-06T07:51:49;27.30;27.50
17998;DHT22;9124;48.144;17.098;2023-04-06T07:55:26;27.30;27.50
17998;DHT22;9124;48.144;17.098;2023-04-06T07:59:03;27.60;27.10
17998;DHT22;9124;48.144;17.098;2023-04-06T08:02:39;27.80;26.70
17998;DHT22;9124;48.144;17.098;2023-04-06T08:06:16;28.40;26.70
17998;DHT22;9124;48.144;17.098;2023-04-06T08:09:53;28.80;26.60
17998;DHT22;9124;48.144;17.098;2023-04-06T08:13:29;28.50;25.50
17998;DHT22;9124;48.144;17.098;2023-04-06T08:17:06;27.60;25.30
17998;DHT22;9124;48.144;17.098;2023-04-06T08:20:43;27.50;25.50
17998;DHT22;9124;48.144;17.098;2023-04-06T08:24:19;27.50;25.60
17998;DHT22;9124;48.144;17.098;2023-04-06T08:27:56;27.70;25.40
17998;DHT22;9124;48.144;17.098;2023-04-06T08:31:34;27.90;25.00
17998;DHT22;9124;48.144;17.098;2023-04-06T08:35:11;27.50;24.20
17998;DHT22;9124;48.144;17.098;2023-04-06T08:38:48;27.00;24.20
17998;DHT22;9124;48.144;17.098;2023-04-06T08:42:26;26.70;24.40
17998;DHT22;9124;48.144;17.098;2023-04-06T08:46:05;25.40;23.60
17998;DHT22;9124;48.144;17.098;2023-04-06T08:49:42;25.20;24.00
17998;DHT22;9124;48.144;17.098;2023-04-06T08:53:19;25.50;24.00
17998;DHT22;9124;48.144;17.098;2023-04-06T08:56:56;26.20;24.20
17998;DHT22;9124;48.144;17.098;2023-04-06T09:00:36;27.30;24.40
17998;DHT22;9124;48.144;17.098;2023-04-06T09:04:14;27.90;23.50
17998;DHT22;9124;48.144;17.098;2023-04-06T09:07:51;27.90;23.30
17998;DHT22;9124;48.144;17.098;2023-04-06T09:11:28;28.00;23.30
17998;DHT22;9124;48.144;17.098;2023-04-06T09:15:05;28.10;22.60
17998;DHT22;9124;48.144;17.098;2023-04-06T09:18:42;28.10;22.30
17998;DHT22;9124;48.144;17.098;2023-04-06T09:22:19;28.20;22.20
17998;DHT22;9124;48.144;17.098;2023-04-06T09:26:14;27.70;21.90
17998;DHT22;9124;48.144;17.098;2023-04-06T09:30:11;27.90;22.40
17998;DHT22;9124;48.144;17.098;2023-04-06T09:33:53;27.90;22.20
17998;DHT22;9124;48.144;17.098;2023-04-06T09:37:30;28.30;22.30
17998;DHT22;9124;48.144;17.098;2023-04-06T09:41:07;28.70;21.90
17998;DHT22;9124;48.144;17.098;2023-04-06T09:44:43;29.30;21.80
17998;DHT22;9124;48.144;17.098;2023-04-06T09:48:20;29.30;21.80
17998;DHT22;9124;48.144;17.098;2023-04-06T09:52:02;29.10;21.30
17998;DHT22;9124;48.144;17.098;2023-04-06T09:55:43;29.20;21.10
17998;DHT22;9124;48.144;17.098;2023-04-06T09:59:55;29.20;21.10
17998;DHT22;9124;48.144;17.098;2023-04-06T10:03:56;29.60;21.00
17998;DHT22;9124;48.144;17.098;2023-04-06T10:07:39;30.00;21.00
17998;DHT22;9124;48.144;17.098;2023-04-06T10:11:16;29.60;20.30
17998;DHT22;9124;48.144;17.098;2023-04-06T10:14:53;31.00;21.40
17998;DHT22;9124;48.144;17.098;2023-04-06T10:18:30;30.60;20.40
17998;DHT22;9124;48.144;17.098;2023-04-06T10:22:08;29.40;20.50
17998;DHT22;9124;48.144;17.098;2023-04-06T10:25:59;27.70;20.20
17998;DHT22;9124;48.144;17.098;2023-04-06T10:29:44;25.20;20.40
17998;DHT22;9124;48.144;17.098;2023-04-06T10:33:21;24.70;21.50
17998;DHT22;9124;48.144;17.098;2023-04-06T10:36:58;24.70;21.60
17998;DHT22;9124;48.144;17.098;2023-04-06T10:40:38;24.70;21.40
17998;DHT22;9124;48.144;17.098;2023-04-06T10:44:23;23.80;21.70
17998;DHT22;9124;48.144;17.098;2023-04-06T10:48:00;23.40;22.30
17998;DHT22;9124;48.144;17.098;2023-04-06T10:51:38;22.40;22.70
17998;DHT22;9124;48.144;17.098;2023-04-06T10:55:17;20.90;23.20
17998;DHT22;9124;48.144;17.098;2023-04-06T10:58:55;19.60;24.10
17998;DHT22;9124;48.144;17.098;2023-04-06T11:02:32;18.30;24.40
17998;DHT22;9124;48.144;17.098;2023-04-06T11:06:08;17.50;25.10
17998;DHT22;9124;48.144;17.098;2023-04-06T11:09:50;17.10;26.10
17998;DHT22;9124;48.144;17.098;2023-04-06T11:13:44;16.70;26.40
17998;DHT22;9124;48.144;17.098;2023-04-06T11:17:28;16.50;26.60
17998;DHT22;9124;48.144;17.098;2023-04-06T11:21:05;16.20;26.90
17998;DHT22;9124;48.144;17.098;2023-04-06T11:24:42;16.00;26.80
17998;DHT22;9124;48.144;17.098;2023-04-06T11:28:19;16.00;27.10
17998;DHT22;9124;48.144;17.098;2023-04-06T11:32:04;15.60;27.20
17998;DHT22;9124;48.144;17.098;2023-04-06T11:35:40;15.20;27.50
17998;DHT22;9124;48.144;17.098;2023-04-06T11:39:43;15.10;28.00
17998;DHT22;9124;48.144;17.098;2023-04-06T11:43:30;15.00;28.00
17998;DHT22;9124;48.144;17.098;2023-04-06T11:47:09;14.90;28.00
17998;DHT22;9124;48.144;17.098;2023-04-06T11:50:47;14.60;27.90
17998;DHT22;9124;48.144;17.098;2023-04-06T11:54:35;14.20;28.10
17998;DHT22;9124;48.144;17.098;2023-04-06T11:58:13;13.90;28.50
17998;DHT22;9124;48.144;17.098;2023-04-06T12:01:51;13.70;28.60
17998;DHT22;9124;48.144;17.098;2023-04-06T12:05:29;13.30;28.70
17998;DHT22;9124;48.144;17.098;2023-04-06T12:09:06;12.90;29.20
17998;DHT22;9124;48.144;17.098;2023-04-06T12:12:42;12.60;29.40
17998;DHT22;9124;48.144;17.098;2023-04-06T12:16:19;12.50;29.90
17998;DHT22;9124;48.144;17.098;2023-04-06T12:19:56;12.40;30.00
17998;DHT22;9124;48.144;17.098;2023-04-06T12:23:33;12.40;30.40
17998;DHT22;9124;48.144;17.098;2023-04-06T12:27:09;12.40;30.70
17998;DHT22;9124;48.144;17.098;2023-04-06T12:30:47;12.40;30.70
17998;DHT22;9124;48.144;17.098;2023-04-06T12:34:24;12.40;31.10
17998;DHT22;9124;48.144;17.098;2023-04-06T12:38:02;12.20;30.90
17998;DHT22;9124;48.144;17.098;2023-04-06T12:41:38;12.10;31.20
17998;DHT22;9124;48.144;17.098;2023-04-06T12:45:18;12.10;31.40
17998;DHT22;9124;48.144;17.098;2023-04-06T12:48:54;12.00;31.60
17998;DHT22;9124;48.144;17.098;2023-04-06T12:52:32;12.00;31.70
17998;DHT22;9124;48.144;17.098;2023-04-06T12:56:34;11.90;31.80
17998;DHT22;9124;48.144;17.098;2023-04-06T13:00:11;12.00;32.00
17998;DHT22;9124;48.144;17.098;2023-04-06T13:03:48;12.00;32.00
17998;DHT22;9124;48.144;17.098;2023-04-06T13:07:25;12.00;32.10
17998;DHT22;9124;48.144;17.098;2023-04-06T13:11:02;12.00;32.20
17998;DHT22;9124;48.144;17.098;2023-04-06T13:14:38;12.00;32.00
17998;DHT22;9124;48.144;17.098;2023-04-06T13:18:15;12.00;31.90
17998;DHT22;9124;48.144;17.098;2023-04-06T13:21:52;12.00;31.90
17998;DHT22;9124;48.144;17.098;2023-04-06T13:25:30;12.10;32.00
17998;DHT22;9124;48.144;17.098;2023-04-06T13:29:08;12.20;32.20
17998;DHT22;9124;48.144;17.098;2023-04-06T13:32:44;12.40;32.30
17998;DHT22;9124;48.144;17.098;2023-04-06T13:36:21;12.50;32.20
17998;DHT22;9124;48.144;17.098;2023-04-06T13:39:58;12.60;32.10
17998;DHT22;9124;48.144;17.098;2023-04-06T13:43:35;12.90;32.10
17998;DHT22;9124;48.144;17.098;2023-04-06T13:47:12;13.20;31.70
17998;DHT22;9124;48.144;17.098;2023-04-06T13:50:50;13.50;31.60
17998;DHT22;9124;48.144;17.098;2023-04-06T13:54:26;13.70;31.40
17998;DHT22;9124;48.144;17.098;2023-04-06T13:58:04;13.90;31.00
17998;DHT22;9124;48.144;17.098;2023-04-06T14:01:41;13.90;30.80
17998;DHT22;9124;48.144;17.098;2023-04-06T14:05:17;13.90;30.40
17998;DHT22;9124;48.144;17.098;2023-04-06T14:08:54;13.90;30.20
17998;DHT22;9124;48.144;17.098;2023-04-06T14:12:30;13.80;30.00
17998;DHT22;9124;48.144;17.098;2023-04-06T14:16:08;13.90;30.10
17998;DHT22;9124;48.144;17.098;2023-04-06T14:19:44;14.00;29.90
17998;DHT22;9124;48.144;17.098;2023-04-06T14:23:21;13.90;29.70
17998;DHT22;9124;48.144;17.098;2023-04-06T14:26:59;13.90;29.80
17998;DHT22;9124;48.144;17.098;2023-04-06T14:30:37;13.80;29.70
17998;DHT22;9124;48.144;17.098;2023-04-06T14:34:14;13.70;29.70
17998;DHT22;9124;48.144;17.098;2023-04-06T14:37:51;13.70;29.70
17998;DHT22;9124;48.144;17.098;2023-04-06T14:41:28;13.70;29.70
17998;DHT22;9124;48.144;17.098;2023-04-06T14:45:05;13.70;29.80
17998;DHT22;9124;48.144;17.098;2023-04-06T14:48:41;13.60;29.70
17998;DHT22;9124;48.144;17.098;2023-04-06T14:52:18;13.50;29.70
17998;DHT22;9124;48.144;17.098;2023-04-06T14:55:55;13.40;29.80
17998;DHT22;9124;48.144;17.098;2023-04-06T14:59:32;13.30;29.90
17998;DHT22;9124;48.144;17.098;2023-04-06T15:03:08;13.30;30.00
17998;DHT22;9124;48.144;17.098;2023-04-06T15:06:45;13.10;30.00
17998;DHT22;9124;48.144;17.098;2023-04-06T15:10:22;13.00;30.00
17998;DHT22;9124;48.144;17.098;2023-04-06T15:14:00;12.90;30.00
17998;DHT22;9124;48.144;17.098;2023-04-06T15:17:37;12.70;30.10
17998;DHT22;9124;48.144;17.098;2023-04-06T15:21:14;12.60;30.20
17998;DHT22;9124;48.144;17.098;2023-04-06T15:24:50;12.40;30.40
17998;DHT22;9124;48.144;17.098;2023-04-06T15:28:28;12.30;30.50
17998;DHT22;9124;48.144;17.098;2023-04-06T15:32:04;12.20;30.70
17998;DHT22;9124;48.144;17.098;2023-04-06T15:35:41;12.20;31.00
17998;DHT22;9124;48.144;17.098;2023-04-06T15:39:18;12.10;31.10
17998;DHT22;9124;48.144;17.098;2023-04-06T15:42:54;12.10;31.20
17998;DHT22;9124;48.144;17.098;2023-04-06T15:46:31;12.00;31.20
17998;DHT22;9124;48.144;17.098;2023-04-06T15:50:08;11.80;31.50
17998;DHT22;9124;48.144;17.098;2023-04-06T15:53:44;11.70;31.60
17998;DHT22;9124;48.144;17.098;2023-04-06T15:57:22;11.70;31.80
17998;DHT22;9124;48.144;17.098;2023-04-06T16:00:59;11.80;32.00
17998;DHT22;9124;48.144;17.098;2023-04-06T16:04:35;11.80;32.10
17998;DHT22;9124;48.144;17.098;2023-04-06T16:08:12;11.70;32.30
17998;DHT22;9124;48.144;17.098;2023-04-06T16:11:49;11.70;32.30
17998;DHT22;9124;48.144;17.098;2023-04-06T16:15:26;11.70;32.50
17998;DHT22;9124;48.144;17.098;2023-04-06T16:19:02;11.70;32.50
17998;DHT22;9124;48.144;17.098;2023-04-06T16:22:39;11.60;32.50
17998;DHT22;9124;48.144;17.098;2023-04-06T16:26:17;11.50;32.70
17998;DHT22;9124;48.144;17.098;2023-04-06T16:29:53;11.40;33.10
17998;DHT22;9124;48.144;17.098;2023-04-06T16:33:30;11.10;33.40
17998;DHT22;9124;48.144;17.098;2023-04-06T16:37:06;11.00;33.40
17998;DHT22;9124;48.144;17.098;2023-04-06T16:40:42;10.80;33.60
17998;DHT22;9124;48.144;17.098;2023-04-06T16:44:19;10.70;33.90
17998;DHT22;9124;48.144;17.098;2023-04-06T16:47:56;10.50;34.10
17998;DHT22;9124;48.144;17.098;2023-04-06T16:51:33;10.40;34.30
17998;DHT22;9124;48.144;17.098;2023-04-06T16:55:09;10.30;34.60
17998;DHT22;9124;48.144;17.098;2023-04-06T16:58:46;10.20;34.90
17998;DHT22;9124;48.144;17.098;2023-04-06T17:02:23;10.00;34.90
17998;DHT22;9124;48.144;17.098;2023-04-06T17:06:00;9.90;35.10
17998;DHT22;9124;48.144;17.098;2023-04-06T17:09:36;9.80;35.40
17998;DHT22;9124;48.144;17.098;2023-04-06T17:13:12;9.80;35.40
17998;DHT22;9124;48.144;17.098;2023-04-06T17:16:49;9.80;35.40
17998;DHT22;9124;48.144;17.098;2023-04-06T17:20:25;9.70;35.70
17998;DHT22;9124;48.144;17.098;2023-04-06T17:24:01;9.70;35.60
17998;DHT22;9124;48.144;17.098;2023-04-06T17:27:38;9.60;35.90
17998;DHT22;9124;48.144;17.098;2023-04-06T17:31:14;9.60;36.00
17998;DHT22;9124;48.144;17.098;2023-04-06T17:34:50;9.50;36.10
17998;DHT22;9124;48.144;17.098;2023-04-06T17:38:27;9.50;36.00
17998;DHT22;9124;48.144;17.098;2023-04-06T17:42:03;9.40;36.10
17998;DHT22;9124;48.144;17.098;2023-04-06T17:45:40;9.30;36.20
17998;DHT22;9124;48.144;17.098;2023-04-06T17:49:16;9.30;36.30
17998;DHT22;9124;48.144;17.098;2023-04-06T17:52:53;9.30;36.30
17998;DHT22;9124;48.144;17.098;2023-04-06T17:56:29;9.20;36.30
17998;DHT22;9124;48.144;17.098;2023-04-06T18:00:06;9.20;36.50
17998;DHT22;9124;48.144;17.098;2023-04-06T18:03:43;9.10;36.80
17998;DHT22;9124;48.144;17.098;2023-04-06T18:07:20;9.10;37.40
17998;DHT22;9124;48.144;17.098;2023-04-06T18:10:56;9.00;36.80
17998;DHT22;9124;48.144;17.098;2023-04-06T18:14:34;9.00;36.90
17998;DHT22;9124;48.144;17.098;2023-04-06T18:18:10;9.00;36.90
17998;DHT22;9124;48.144;17.098;2023-04-06T18:21:48;9.00;37.00
17998;DHT22;9124;48.144;17.098;2023-04-06T18:25:24;9.00;37.60
17998;DHT22;9124;48.144;17.098;2023-04-06T18:29:00;9.00;37.10
17998;DHT22;9124;48.144;17.098;2023-04-06T18:32:37;9.00;37.20
17998;DHT22;9124;48.144;17.098;2023-04-06T18:36:13;8.90;37.30
17998;DHT22;9124;48.144;17.098;2023-04-06T18:39:49;8.90;37.30
17998;DHT22;9124;48.144;17.098;2023-04-06T18:43:26;8.90;37.50
17998;DHT22;9124;48.144;17.098;2023-04-06T18:47:03;8.90;37.60
17998;DHT22;9124;48.144;17.098;2023-04-06T18:50:40;8.90;37.70
17998;DHT22;9124;48.144;17.098;2023-04-06T18:54:16;8.90;37.70
17998;DHT22;9124;48.144;17.098;2023-04-06T18:57:53;8.90;37.80
17998;DHT22;9124;48.144;17.098;2023-04-06T19:01:31;8.90;37.90
17998;DHT22;9124;48.144;17.098;2023-04-06T19:05:10;8.90;38.00
17998;DHT22;9124;48.144;17.098;2023-04-06T19:08:47;8.90;38.10
17998;DHT22;9124;48.144;17.098;2023-04-06T19:12:24;8.90;38.20
17998;DHT22;9124;48.144;17.098;2023-04-06T19:16:00;8.90;38.20
17998;DHT22;9124;48.144;17.098;2023-04-06T19:19:37;8.90;38.40
17998;DHT22;9124;48.144;17.098;2023-04-06T19:23:13;8.90;38.40
17998;DHT22;9124;48.144;17.098;2023-04-06T19:26:50;8.90;38.60
17998;DHT22;9124;48.144;17.098;2023-04-06T19:30:26;8.80;38.60
17998;DHT22;9124;48.144;17.098;2023-04-06T19:34:03;8.80;38.70
17998;DHT22;9124;48.144;17.098;2023-04-06T19:37:42;8.80;38.80
17998;DHT22;9124;48.144;17.098;2023-04-06T19:41:19;8.70;38.90
17998;DHT22;9124;48.144;17.098;2023-04-06T19:44:57;8.70;38.90
17998;DHT22;9124;48.144;17.098;2023-04-06T19:48:33;8.70;39.20
17998;DHT22;9124;48.144;17.098;2023-04-06T19:52:10;8.70;39.20
17998;DHT22;9124;48.144;17.098;2023-04-06T19:55:47;8.70;39.20
17998;DHT22;9124;48.144;17.098;2023-04-06T19:59:24;8.70;39.20
17998;DHT22;9124;48.144;17.098;2023-04-06T20:03:00;8.70;39.40
17998;DHT22;9124;48.144;17.098;2023-04-06T20:06:36;8.60;39.60
17998;DHT22;9124;48.144;17.098;2023-04-06T20:10:13;8.50;39.70
17998;DHT22;9124;48.144;17.098;2023-04-06T20:13:49;8.50;40.00
17998;DHT22;9124;48.144;17.098;2023-04-06T20:17:25;8.50;40.30
17998;DHT22;9124;48.144;17.098;2023-04-06T20:21:02;8.40;40.20
17998;DHT22;9124;48.144;17.098;2023-04-06T20:24:39;8.40;40.40
17998;DHT22;9124;48.144;17.098;2023-04-06T20:28:16;8.40;40.60
17998;DHT22;9124;48.144;17.098;2023-04-06T20:31:52;8.40;40.70
17998;DHT22;9124;48.144;17.098;2023-04-06T20:35:29;8.30;40.90
17998;DHT22;9124;48.144;17.098;2023-04-06T20:39:07;8.30;41.00
17998;DHT22;9124;48.144;17.098;2023-04-06T20:42:43;8.20;40.90
17998;DHT22;9124;48.144;17.098;2023-04-06T20:46:19;8.20;41.00
17998;DHT22;9124;48.144;17.098;2023-04-06T20:49:56;8.20;41.20
17998;DHT22;9124;48.144;17.098;2023-04-06T20:53:32;8.20;41.70
17998;DHT22;9124;48.144;17.098;2023-04-06T20:57:09;8.10;41.60
17998;DHT22;9124;48.144;17.098;2023-04-06T21:00:48;8.10;41.70
17998;DHT22;9124;48.144;17.098;2023-04-06T21:04:25;8.00;41.90
17998;DHT22;9124;48.144;17.098;2023-04-06T21:08:02;8.00;42.10
17998;DHT22;9124;48.144;17.098;2023-04-06T21:11:38;8.00;42.10
17998;DHT22;9124;48.144;17.098;2023-04-06T21:15:15;7.90;42.30
17998;DHT22;9124;48.144;17.098;2023-04-06T21:18:52;7.90;42.50
17998;DHT22;9124;48.144;17.098;2023-04-06T21:22:29;7.90;42.80
17998;DHT22;9124;48.144;17.098;2023-04-06T21:26:05;7.90;42.70
17998;DHT22;9124;48.144;17.098;2023-04-06T21:29:41;7.90;43.40
17998;DHT22;9124;48.144;17.098;2023-04-06T21:33:18;7.90;42.80
17998;DHT22;9124;48.144;17.098;2023-04-06T21:36:55;7.90;42.90
17998;DHT22;9124;48.144;17.098;2023-04-06T21:40:31;7.90;43.00
17998;DHT22;9124;48.144;17.098;2023-04-06T21:44:08;8.00;43.10
17998;DHT22;9124;48.144;17.098;2023-04-06T21:47:44;8.00;43.10
17998;DHT22;9124;48.144;17.098;2023-04-06T21:51:22;8.00;43.40
17998;DHT22;9124;48.144;17.098;2023-04-06T21:54:58;7.90;43.60
17998;DHT22;9124;48.144;17.098;2023-04-06T21:58:35;7.90;43.70
17998;DHT22;9124;48.144;17.098;2023-04-06T22:02:11;7.80;43.80
17998;DHT22;9124;48.144;17.098;2023-04-06T22:05:48;7.80;44.00
17998;DHT22;9124;48.144;17.098;2023-04-06T22:09:24;7.60;44.50
17998;DHT22;9124;48.144;17.098;2023-04-06T22:13:01;7.50;44.90
17998;DHT22;9124;48.144;17.098;2023-04-06T22:16:37;7.50;44.70
17998;DHT22;9124;48.144;17.098;2023-04-06T22:20:14;7.50;44.70
17998;DHT22;9124;48.144;17.098;2023-04-06T22:23:50;7.50;44.90
17998;DHT22;9124;48.144;17.098;2023-04-06T22:27:27;7.60;45.00
17998;DHT22;9124;48.144;17.098;2023-04-06T22:31:03;7.50;45.00
17998;DHT22;9124;48.144;17.098;2023-04-06T22:34:40;7.50;45.00
17998;DHT22;9124;48.144;17.098;2023-04-06T22:38:16;7.50;45.40
17998;DHT22;9124;48.144;17.098;2023-04-06T22:41:53;7.50;45.30
17998;DHT22;9124;48.144;17.098;2023-04-06T22:45:29;7.50;45.60
17998;DHT22;9124;48.144;17.098;2023-04-06T22:49:06;7.50;45.50
17998;DHT22;9124;48.144;17.098;2023-04-06T22:52:42;7.50;45.60
17998;DHT22;9124;48.144;17.098;2023-04-06T22:56:18;7.50;45.60
17998;DHT22;9124;48.144;17.098;2023-04-06T22:59:56;7.50;45.90
17998;DHT22;9124;48.144;17.098;2023-04-06T23:03:33;7.40;46.00
17998;DHT22;9124;48.144;17.098;2023-04-06T23:07:09;7.40;46.10
17998;DHT22;9124;48.144;17.098;2023-04-06T23:10:50;7.40;46.30